Latest Weather Observations for Forrest

IDW60801

Issued at 11:32 am WST Sunday 29 May 2016 (issued every 30 minutes, with the page automatically refreshed every 10 minutes)

About weather observations | Map of weather stations | Latest weather observations for WA | Other Formats
Station Details ID: 011052 Name: FORREST Lat: -30.85 Lon: 128.11 Height: 159.0 m
Data from the previous 72 hours. | See also: Recent months at Forrest
Date/Time
WST
Temp
°C
App
Temp
°C
Dew
Point
Rel
Hum
%
Delta-T
°C
Wind Press
QNH
hPa
Press
MSL
hPa
Rain
since 9 am
mm
Dir
 
Spd
km/h
Gust
km/h
Spd
kts
Gust
kts
29/11:30am 19.0 13.2 4.4 38 7.0 WSW 24 33 13 18 1015.3 - 0.0
29/11:00am 18.9 12.9 5.4 41 6.6 WSW 26 35 14 19 1015.5 - 0.0
29/10:30am 18.5 12.7 6.4 45 6.1 WSW 26 32 14 17 1015.9 - 0.0
29/10:00am 18.2 12.2 7.0 48 5.7 WSW 28 35 15 19 1015.9 - 0.0
29/09:30am 17.8 11.8 7.2 50 5.4 SW 28 33 15 18 1016.0 - 0.0
29/09:00am 17.0 12.4 8.2 56 4.5 WSW 22 32 12 17 1015.9 1015.8 0.0
29/08:30am 15.4 10.0 7.9 61 3.8 WSW 26 33 14 18 1015.6 - 0.0
29/08:00am 13.6 8.1 7.4 66 3.1 WSW 26 33 14 18 1015.4 - 0.0
29/07:30am 12.5 8.3 7.4 71 2.5 W 19 26 10 14 1015.0 - 0.0
29/07:00am 11.1 7.2 7.0 76 2.0 W 17 22 9 12 1014.8 - 0.0
29/06:30am 10.5 6.5 6.5 76 1.9 W 17 20 9 11 1014.4 - 0.0
29/06:00am 11.4 6.8 6.5 72 2.3 W 20 28 11 15 1013.8 1013.7 0.0
29/05:30am 11.1 7.3 5.6 69 2.6 WNW 15 19 8 10 1013.4 - 0.0
29/05:00am 10.7 6.7 4.8 67 2.7 NW 15 19 8 10 1013.0 - 0.0
29/04:30am 11.3 6.9 4.5 63 3.1 NW 17 19 9 10 1012.8 - 0.0
29/04:00am 11.5 6.7 4.5 62 3.2 NNW 19 26 10 14 1012.8 - 0.0
29/03:30am 11.2 5.5 4.7 64 3.0 WNW 24 32 13 17 1013.1 - 0.0
29/03:00am 12.0 7.2 4.5 60 3.4 N 19 24 10 13 1012.4 1012.3 0.0
29/02:30am 12.1 7.2 4.3 59 3.6 N 19 24 10 13 1012.2 - 0.0
29/02:00am 12.8 7.8 4.5 57 3.8 N 20 28 11 15 1012.1 - 0.0
29/01:30am 12.0 7.4 5.4 64 3.1 N 19 22 10 12 1012.1 - 0.0
29/01:00am 10.7 6.8 5.5 70 2.4 N 15 19 8 10 1012.5 - 0.0
29/12:30am 11.3 7.1 5.6 68 2.7 N 17 20 9 11 1012.6 - 0.0
29/12:00am 12.3 8.5 5.9 65 3.0 N 15 20 8 11 1012.7 1012.6 0.0
 
Date/Time
WST
Temp
°C
App
Temp
°C
Dew
Point
Rel
Hum
%
Delta-T
°C
Wind Press
QNH
hPa
Press
MSL
hPa
Rain
since 9 am
mm
Dir
 
Spd
km/h
Gust
km/h
Spd
kts
Gust
kts
28/11:30pm 12.2 7.5 6.0 66 2.9 N 20 24 11 13 1012.8 - 0.0
28/11:00pm 13.2 8.7 6.3 63 3.3 NNE 19 26 10 14 1013.5 - 0.0
28/10:30pm 13.3 9.0 6.9 65 3.1 NNE 19 22 10 12 1013.7 - 0.0
28/10:00pm 12.4 8.9 7.1 70 2.6 NNE 15 19 8 10 1014.1 - 0.0
28/09:30pm 12.6 9.2 7.5 71 2.5 NNE 15 19 8 10 1014.2 - 0.0
28/09:00pm 12.5 9.5 7.8 73 2.3 NNE 13 15 7 8 1014.4 1014.3 0.0
28/08:30pm 13.0 9.7 7.9 71 2.5 NNE 15 15 8 8 1014.6 - 0.0
28/08:00pm 13.5 10.7 8.4 71 2.6 NNE 13 15 7 8 1015.0 - 0.0
28/07:30pm 13.1 10.4 8.8 75 2.2 NNE 13 15 7 8 1015.0 - 0.0
28/07:00pm 13.4 11.1 9.1 75 2.2 NNE 11 13 6 7 1015.2 - 0.0
28/06:30pm 13.8 11.6 9.3 74 2.3 NNE 11 11 6 6 1015.2 - 0.0
28/06:00pm 14.5 12.7 9.5 72 2.6 NE 9 11 5 6 1015.2 1015.1 0.0
28/05:30pm 15.0 12.9 9.6 70 2.8 NE 11 13 6 7 1015.0 - 0.0
28/05:00pm 15.5 14.2 9.8 69 3.0 NNE 7 9 4 5 1014.8 - 0.0
28/04:30pm 16.3 14.1 8.0 58 4.2 N 9 13 5 7 1014.8 - 0.0
28/04:00pm 17.2 13.4 7.5 53 4.9 NNW 17 30 9 16 1015.0 - 0.0
28/03:30pm 18.1 13.8 5.3 43 6.2 N 17 20 9 11 1015.0 - 0.0
28/03:00pm 18.6 13.8 4.8 40 6.7 NNW 19 26 10 14 1015.1 1015.0 0.0
28/02:30pm 18.5 13.5 4.7 40 6.7 N 20 28 11 15 1015.1 - 0.0
28/02:00pm 18.8 14.1 6.0 43 6.4 N 20 30 11 16 1015.2 - 0.0
28/01:30pm 18.9 13.7 5.7 42 6.5 N 22 32 12 17 1015.5 - 0.0
28/01:00pm 18.3 13.6 6.2 45 6.0 N 20 32 11 17 1015.8 - 0.0
28/12:30pm 18.1 13.4 6.0 45 6.0 N 20 28 11 15 1016.3 - 0.0
28/12:00pm 17.5 12.8 7.8 53 4.9 N 22 30 12 16 1017.0 1017.0 0.0
28/11:30am 17.2 12.7 9.9 62 3.9 NNE 24 33 13 18 1017.6 - 0.0
28/11:00am 16.7 12.3 10.3 66 3.4 N 24 32 13 17 1018.6 - 0.0
28/10:30am 15.3 10.9 10.3 72 2.6 NNE 24 32 13 17 1018.8 - 0.0
28/10:00am 14.7 10.3 10.3 75 2.3 NNE 24 30 13 16 1019.6 - 0.0
28/09:30am 14.2 10.2 10.6 79 1.9 NNE 22 30 12 16 1019.9 - 0.0
28/09:00am 13.9 9.6 10.9 82 1.6 NNE 24 30 13 16 1020.2 1020.1 0.2
28/08:30am 12.0 9.2 11.4 96 0.3 NNE 17 26 9 14 1020.4 - 0.2
28/08:00am 10.1 8.5 10.1 100 0.0 NNE 9 13 5 7 1020.7 - 0.2
28/07:30am 8.0 6.2 8.0 100 0.0 N 7 9 4 5 1020.5 - 0.2
28/07:00am 6.1 3.5 6.1 100 0.0 N 9 11 5 6 1020.5 - 0.0
28/06:30am 5.6 2.5 5.6 100 0.0 N 11 13 6 7 1020.6 - 0.0
28/06:00am 5.1 1.9 5.1 100 0.0 NNW 11 11 6 6 1020.5 1020.4 0.0
28/05:30am 4.2 1.2 4.1 99 0.0 N 9 11 5 6 1020.0 - 0.0
28/05:00am 4.9 1.6 4.8 99 0.0 NNW 11 13 6 7 1020.0 - 0.0
28/04:30am 5.4 2.2 5.3 99 0.0 NNW 11 11 6 6 1020.2 - 0.0
28/04:00am 5.6 2.9 5.5 99 0.0 NNW 9 11 5 6 1020.2 - 0.0
28/03:30am 6.2 3.2 6.1 99 0.0 NNW 11 13 6 7 1020.2 - 0.0
28/03:00am 6.3 3.0 6.2 99 0.0 NNW 13 15 7 8 1020.3 1020.2 0.0
28/02:30am 5.7 2.2 5.6 99 0.0 NNW 13 15 7 8 1020.5 - 0.0
28/02:00am 6.0 5.0 5.7 98 0.1 CALM 0 0 0 0 1020.6 - 0.0
28/01:30am 6.4 5.5 6.1 98 0.1 CALM 0 0 0 0 1020.7 - 0.0
28/01:00am 7.0 6.3 6.9 99 0.0 CALM 0 0 0 0 1020.8 - 0.0
28/12:30am 7.7 6.0 7.6 99 0.0 N 6 6 3 3 1020.9 - 0.0
28/12:00am 7.3 5.3 7.0 98 0.1 N 7 7 4 4 1021.1 1021.0 0.0
 
Date/Time
WST
Temp
°C
App
Temp
°C
Dew
Point
Rel
Hum
%
Delta-T
°C
Wind Press
QNH
hPa
Press
MSL
hPa
Rain
since 9 am
mm
Dir
 
Spd
km/h
Gust
km/h
Spd
kts
Gust
kts
27/11:30pm 7.8 5.5 7.5 98 0.1 N 9 11 5 6 1021.6 - 0.0
27/11:00pm 8.5 5.6 8.2 98 0.1 N 13 13 7 7 1021.8 - 0.0
27/10:30pm 8.6 6.9 8.3 98 0.1 N 7 9 4 5 1021.9 - 0.0
27/10:00pm 9.4 9.2 8.9 97 0.2 CALM 0 0 0 0 1021.9 - 0.0
27/09:30pm 9.6 9.3 8.8 95 0.4 CALM 0 0 0 0 1021.8 - 0.0
27/09:00pm 10.4 9.2 9.6 95 0.4 SE 6 7 3 4 1022.0 1022.0 0.0
27/08:30pm 10.2 8.9 9.1 93 0.5 SSE 6 7 3 4 1022.3 - 0.0
27/08:00pm 11.2 9.6 10.3 94 0.5 S 9 9 5 5 1022.4 - 0.0
27/07:30pm 11.7 9.8 10.4 92 0.7 S 11 13 6 7 1022.5 - 0.0
27/07:00pm 12.7 11.0 11.1 90 0.8 S 11 15 6 8 1022.5 - 0.0
27/06:30pm 13.1 11.3 11.0 87 1.1 S 11 15 6 8 1022.5 - 0.0
27/06:00pm 13.8 11.0 11.5 86 1.2 S 17 22 9 12 1022.3 1022.3 0.0
27/05:30pm 14.6 10.5 11.6 82 1.6 S 24 32 13 17 1021.8 - 0.0
27/05:00pm 15.9 12.1 11.1 73 2.6 S 22 32 12 17 1021.4 - 0.0
27/04:30pm 17.2 14.1 8.9 58 4.3 WSW 15 20 8 11 1021.2 - 0.0
27/04:00pm 17.4 13.8 8.3 55 4.7 SW 17 20 9 11 1021.1 - 0.0
27/03:30pm 17.8 13.3 8.6 55 4.8 SSW 22 28 12 15 1021.0 - 0.0
27/03:00pm 18.2 12.9 8.5 53 5.0 SW 26 33 14 18 1021.0 1020.9 0.0
27/02:30pm 18.3 13.4 8.6 53 5.1 SW 24 33 13 18 1020.9 - 0.0
27/02:00pm 18.3 13.7 8.0 51 5.3 SW 22 30 12 16 1020.8 - 0.0
27/01:30pm 18.6 14.4 7.4 48 5.7 WSW 19 37 10 20 1020.7 - 0.0
27/01:00pm 18.7 13.7 8.1 50 5.5 SSW 24 32 13 17 1021.1 - 0.0
27/12:30pm 18.0 13.6 7.4 50 5.4 WSW 20 30 11 16 1021.4 - 0.0
27/12:00pm 18.2 13.3 8.5 53 5.0 WSW 24 32 13 17 1021.5 1021.4 0.0
27/11:30am 17.7 12.8 8.3 54 4.9 WSW 24 32 13 17 1021.7 - 0.0
27/11:00am 16.8 11.4 8.2 57 4.4 SW 26 35 14 19 1022.2 - 0.0
27/10:30am 16.0 10.3 8.2 60 4.0 SW 28 35 15 19 1022.6 - 0.0
27/10:00am 16.2 11.0 8.7 61 3.9 WSW 26 32 14 17 1022.9 - 0.0
27/09:30am 15.4 10.2 8.9 65 3.3 WSW 26 33 14 18 1023.2 - 0.0
27/09:00am 14.5 9.7 8.7 68 2.9 WSW 24 30 13 16 1023.4 1023.4 0.0
27/08:30am 12.8 7.8 8.1 73 2.3 WSW 24 30 13 16 1023.3 - 0.0
27/08:00am 11.3 7.1 8.2 81 1.5 WSW 20 28 11 15 1023.1 - 0.0
27/07:30am 9.2 5.0 7.5 89 0.8 WSW 19 22 10 12 1022.7 - 0.0
27/07:00am 7.7 3.8 7.1 96 0.3 W 17 20 9 11 1022.4 - 0.0
27/06:30am 6.8 2.7 6.2 96 0.3 W 17 20 9 11 1022.2 - 0.0
27/06:00am 7.1 3.4 6.5 96 0.3 W 15 19 8 10 1021.9 1021.9 0.0
27/05:30am 7.6 3.7 6.9 95 0.3 W 17 19 9 10 1021.7 - 0.0
27/05:00am 7.9 4.0 7.1 95 0.4 W 17 19 9 10 1021.4 - 0.0
27/04:30am 8.2 4.4 7.6 96 0.3 W 17 19 9 10 1020.9 - 0.0
27/04:00am 8.4 4.7 7.8 96 0.3 W 17 19 9 10 1021.0 - 0.0
27/03:30am 8.6 5.2 7.8 95 0.4 W 15 17 8 9 1020.7 - 0.0
27/03:00am 9.0 5.4 8.2 95 0.4 WNW 17 20 9 11 1020.6 1020.5 0.0
27/02:30am 9.1 5.5 8.3 95 0.4 WNW 17 19 9 10 1020.8 - 0.0
27/02:00am 9.5 6.0 8.6 94 0.4 W 17 19 9 10 1020.6 - 0.0
27/01:30am 9.4 5.8 8.5 94 0.4 W 17 19 9 10 1020.6 - 0.0
27/01:00am 9.4 5.8 8.3 93 0.5 W 17 19 9 10 1020.7 - 0.0
27/12:30am 9.7 6.2 8.6 93 0.5 W 17 19 9 10 1020.4 - 0.0
27/12:00am 9.6 6.0 8.4 92 0.6 W 17 19 9 10 1020.3 1020.2 0.0
 
Date/Time
WST
Temp
°C
App
Temp
°C
Dew
Point
Rel
Hum
%
Delta-T
°C
Wind Press
QNH
hPa
Press
MSL
hPa
Rain
since 9 am
mm
Dir
 
Spd
km/h
Gust
km/h
Spd
kts
Gust
kts
26/11:30pm 10.0 6.8 8.4 90 0.8 W 15 17 8 9 1020.2 - 0.0
26/11:00pm 10.8 8.0 8.7 87 1.0 W 13 17 7 9 1020.1 - 0.0
26/10:30pm 11.6 8.1 8.6 82 1.5 WSW 17 19 9 10 1020.2 - 0.0
26/10:00pm 12.4 9.4 9.1 80 1.7 WSW 15 17 8 9 1019.8 - 0.0
26/09:30pm 12.1 8.4 9.3 83 1.4 W 19 22 10 12 1019.6 - 0.0
26/09:00pm 11.4 8.0 9.0 85 1.2 W 17 20 9 11 1019.1 1019.0 0.0
26/08:30pm 12.2 8.8 9.0 81 1.6 W 17 22 9 12 1018.8 - 0.0
26/08:00pm 12.6 9.2 9.1 79 1.8 WNW 17 19 9 10 1018.4 - 0.0
26/07:30pm 13.2 9.8 9.1 76 2.1 NW 17 20 9 11 1018.5 - 0.0
26/07:00pm 12.7 9.3 9.0 78 1.9 NW 17 19 9 10 1018.0 - 0.0
26/06:30pm 12.9 9.9 9.2 78 1.9 NW 15 19 8 10 1017.9 - 0.0
26/06:00pm 12.9 10.2 8.8 76 2.1 NW 13 17 7 9 1017.5 1017.5 0.0
26/05:30pm 13.6 10.9 8.9 73 2.4 WNW 13 15 7 8 1016.8 - 0.0
26/05:00pm 14.5 11.7 8.7 68 3.0 W 13 15 7 8 1016.8 - 0.0
26/04:30pm 15.4 11.8 8.2 62 3.7 W 17 22 9 12 1016.7 - 0.0
26/04:00pm 16.1 11.8 7.8 58 4.2 W 20 26 11 14 1016.2 - 0.0
26/03:30pm 16.8 11.5 6.9 52 4.9 W 24 30 13 16 1015.7 - 0.0
26/03:00pm 17.0 11.3 6.5 50 5.2 W 26 30 14 16 1015.2 1015.1 0.0
26/02:30pm 17.2 12.5 6.1 48 5.5 W 20 28 11 15 1014.9 - 0.0
26/02:00pm 17.0 12.3 5.9 48 5.4 W 20 26 11 14 1014.7 - 0.0
26/01:30pm 17.0 12.3 5.9 48 5.4 W 20 28 11 15 1015.1 - 0.0
26/01:00pm 17.0 11.5 5.9 48 5.4 W 24 32 13 17 1014.9 - 0.0
26/12:30pm 16.8 10.4 5.4 47 5.5 W 28 35 15 19 1015.1 - 0.0
26/12:00pm 17.1 10.4 5.4 46 5.7 WSW 30 37 16 20 1015.4 1015.3 0.0

Other Formats:

Comma delimited format used in spreadsheet applications
http://www.bom.gov.au/fwo/IDW60801/IDW60801.95646.axf

JavaScript Object Notation format (JSON) in row-major order
http://www.bom.gov.au/fwo/IDW60801/IDW60801.95646.json